sensor_id;sensor_type;location;lat;lon;timestamp;P1;durP1;ratioP1;P2;durP2;ratioP2
3627;SDS011;1830;49.000;12.074;2023-02-01T00:01:19;11.53;;;7.37;;
3627;SDS011;1830;49.000;12.074;2023-02-01T00:03:46;14.20;;;7.40;;
3627;SDS011;1830;49.000;12.074;2023-02-01T00:06:13;13.10;;;8.37;;
3627;SDS011;1830;49.000;12.074;2023-02-01T00:08:40;18.80;;;8.87;;
3627;SDS011;1830;49.000;12.074;2023-02-01T00:11:09;13.67;;;7.90;;
3627;SDS011;1830;49.000;12.074;2023-02-01T00:13:38;22.37;;;9.60;;
3627;SDS011;1830;49.000;12.074;2023-02-01T00:16:07;15.00;;;8.90;;
3627;SDS011;1830;49.000;12.074;2023-02-01T00:18:35;15.50;;;7.47;;
3627;SDS011;1830;49.000;12.074;2023-02-01T00:21:02;17.90;;;8.93;;
3627;SDS011;1830;49.000;12.074;2023-02-01T00:23:31;13.13;;;7.90;;
3627;SDS011;1830;49.000;12.074;2023-02-01T00:26:00;13.67;;;8.30;;
3627;SDS011;1830;49.000;12.074;2023-02-01T00:28:30;15.17;;;9.73;;
3627;SDS011;1830;49.000;12.074;2023-02-01T00:30:57;17.27;;;9.20;;
3627;SDS011;1830;49.000;12.074;2023-02-01T00:33:24;12.83;;;8.47;;
3627;SDS011;1830;49.000;12.074;2023-02-01T00:35:51;11.67;;;8.57;;
3627;SDS011;1830;49.000;12.074;2023-02-01T00:38:22;10.90;;;8.10;;
3627;SDS011;1830;49.000;12.074;2023-02-01T00:40:49;15.83;;;8.10;;
3627;SDS011;1830;49.000;12.074;2023-02-01T00:43:17;9.40;;;7.97;;
3627;SDS011;1830;49.000;12.074;2023-02-01T00:45:46;12.80;;;8.93;;
3627;SDS011;1830;49.000;12.074;2023-02-01T00:48:12;12.20;;;8.37;;
3627;SDS011;1830;49.000;12.074;2023-02-01T00:50:40;11.60;;;7.97;;
3627;SDS011;1830;49.000;12.074;2023-02-01T00:53:08;15.73;;;9.77;;
3627;SDS011;1830;49.000;12.074;2023-02-01T00:55:35;10.60;;;7.97;;
3627;SDS011;1830;49.000;12.074;2023-02-01T00:58:01;11.00;;;8.40;;
3627;SDS011;1830;49.000;12.074;2023-02-01T01:00:30;13.50;;;8.73;;
3627;SDS011;1830;49.000;12.074;2023-02-01T01:02:59;13.73;;;8.63;;
3627;SDS011;1830;49.000;12.074;2023-02-01T01:05:25;10.13;;;7.27;;
3627;SDS011;1830;49.000;12.074;2023-02-01T01:07:52;11.13;;;7.00;;
3627;SDS011;1830;49.000;12.074;2023-02-01T01:10:19;12.27;;;7.90;;
3627;SDS011;1830;49.000;12.074;2023-02-01T01:12:47;11.50;;;9.07;;
3627;SDS011;1830;49.000;12.074;2023-02-01T01:15:13;13.70;;;8.80;;
3627;SDS011;1830;49.000;12.074;2023-02-01T01:17:40;16.50;;;7.40;;
3627;SDS011;1830;49.000;12.074;2023-02-01T01:20:09;14.60;;;8.63;;
3627;SDS011;1830;49.000;12.074;2023-02-01T01:22:37;15.17;;;7.90;;
3627;SDS011;1830;49.000;12.074;2023-02-01T01:25:04;17.40;;;8.50;;
3627;SDS011;1830;49.000;12.074;2023-02-01T01:27:31;11.77;;;8.70;;
3627;SDS011;1830;49.000;12.074;2023-02-01T01:29:58;11.30;;;8.30;;
3627;SDS011;1830;49.000;12.074;2023-02-01T01:32:25;15.10;;;10.13;;
3627;SDS011;1830;49.000;12.074;2023-02-01T01:34:52;14.20;;;9.37;;
3627;SDS011;1830;49.000;12.074;2023-02-01T01:37:20;15.10;;;8.63;;
3627;SDS011;1830;49.000;12.074;2023-02-01T01:39:46;11.23;;;7.90;;
3627;SDS011;1830;49.000;12.074;2023-02-01T01:42:13;11.87;;;8.13;;
3627;SDS011;1830;49.000;12.074;2023-02-01T01:44:56;18.50;;;8.40;;
3627;SDS011;1830;49.000;12.074;2023-02-01T01:47:29;9.80;;;7.20;;
3627;SDS011;1830;49.000;12.074;2023-02-01T01:50:00;7.97;;;6.83;;
3627;SDS011;1830;49.000;12.074;2023-02-01T01:52:29;11.13;;;7.73;;
3627;SDS011;1830;49.000;12.074;2023-02-01T01:54:56;12.83;;;7.47;;
3627;SDS011;1830;49.000;12.074;2023-02-01T01:57:25;12.00;;;6.37;;
3627;SDS011;1830;49.000;12.074;2023-02-01T01:59:56;10.60;;;6.73;;
3627;SDS011;1830;49.000;12.074;2023-02-01T02:02:28;10.03;;;7.63;;
3627;SDS011;1830;49.000;12.074;2023-02-01T02:04:55;13.47;;;8.67;;
3627;SDS011;1830;49.000;12.074;2023-02-01T02:07:23;10.73;;;7.60;;
3627;SDS011;1830;49.000;12.074;2023-02-01T02:09:55;8.87;;;6.60;;
3627;SDS011;1830;49.000;12.074;2023-02-01T02:12:22;8.60;;;7.40;;
3627;SDS011;1830;49.000;12.074;2023-02-01T02:14:49;7.77;;;6.00;;
3627;SDS011;1830;49.000;12.074;2023-02-01T02:17:20;9.07;;;7.80;;
3627;SDS011;1830;49.000;12.074;2023-02-01T02:23:15;10.53;;;7.00;;
3627;SDS011;1830;49.000;12.074;2023-02-01T02:32:21;9.97;;;7.13;;
3627;SDS011;1830;49.000;12.074;2023-02-01T02:35:23;9.77;;;6.80;;
3627;SDS011;1830;49.000;12.074;2023-02-01T02:37:54;9.70;;;7.07;;
3627;SDS011;1830;49.000;12.074;2023-02-01T02:40:29;7.50;;;6.43;;
3627;SDS011;1830;49.000;12.074;2023-02-01T02:43:01;8.27;;;6.87;;
3627;SDS011;1830;49.000;12.074;2023-02-01T02:45:54;7.00;;;5.53;;
3627;SDS011;1830;49.000;12.074;2023-02-01T02:48:55;10.70;;;6.07;;
3627;SDS011;1830;49.000;12.074;2023-02-01T02:51:29;10.07;;;6.50;;
3627;SDS011;1830;49.000;12.074;2023-02-01T02:54:19;7.90;;;6.50;;
3627;SDS011;1830;49.000;12.074;2023-02-01T02:57:07;8.63;;;5.93;;
3627;SDS011;1830;49.000;12.074;2023-02-01T02:59:56;8.40;;;7.30;;
3627;SDS011;1830;49.000;12.074;2023-02-01T03:02:42;17.97;;;6.70;;
3627;SDS011;1830;49.000;12.074;2023-02-01T03:05:31;9.97;;;6.40;;
3627;SDS011;1830;49.000;12.074;2023-02-01T03:08:05;11.43;;;7.53;;
3627;SDS011;1830;49.000;12.074;2023-02-01T03:10:40;10.13;;;6.13;;
3627;SDS011;1830;49.000;12.074;2023-02-01T03:13:13;5.80;;;4.67;;
3627;SDS011;1830;49.000;12.074;2023-02-01T03:15:49;7.63;;;6.80;;
3627;SDS011;1830;49.000;12.074;2023-02-01T03:18:22;12.77;;;6.03;;
3627;SDS011;1830;49.000;12.074;2023-02-01T03:20:52;9.73;;;6.20;;
3627;SDS011;1830;49.000;12.074;2023-02-01T03:23:23;9.37;;;6.80;;
3627;SDS011;1830;49.000;12.074;2023-02-01T03:25:53;9.60;;;5.70;;
3627;SDS011;1830;49.000;12.074;2023-02-01T03:28:22;14.67;;;8.60;;
3627;SDS011;1830;49.000;12.074;2023-02-01T03:30:51;7.40;;;6.20;;
3627;SDS011;1830;49.000;12.074;2023-02-01T03:33:20;8.90;;;5.77;;
3627;SDS011;1830;49.000;12.074;2023-02-01T03:35:50;8.87;;;6.20;;
3627;SDS011;1830;49.000;12.074;2023-02-01T03:38:25;9.90;;;7.07;;
3627;SDS011;1830;49.000;12.074;2023-02-01T03:40:57;10.77;;;5.97;;
3627;SDS011;1830;49.000;12.074;2023-02-01T03:43:29;8.03;;;5.43;;
3627;SDS011;1830;49.000;12.074;2023-02-01T03:46:01;6.57;;;5.80;;
3627;SDS011;1830;49.000;12.074;2023-02-01T03:48:32;8.13;;;5.93;;
3627;SDS011;1830;49.000;12.074;2023-02-01T03:51:00;5.07;;;4.57;;
3627;SDS011;1830;49.000;12.074;2023-02-01T03:53:32;8.20;;;6.50;;
3627;SDS011;1830;49.000;12.074;2023-02-01T03:56:01;8.10;;;5.17;;
3627;SDS011;1830;49.000;12.074;2023-02-01T03:58:29;8.80;;;5.83;;
3627;SDS011;1830;49.000;12.074;2023-02-01T04:00:56;4.97;;;4.13;;
3627;SDS011;1830;49.000;12.074;2023-02-01T04:03:24;7.87;;;5.77;;
3627;SDS011;1830;49.000;12.074;2023-02-01T04:05:52;6.80;;;5.10;;
3627;SDS011;1830;49.000;12.074;2023-02-01T04:08:20;8.43;;;5.40;;
3627;SDS011;1830;49.000;12.074;2023-02-01T04:10:48;10.63;;;6.27;;
3627;SDS011;1830;49.000;12.074;2023-02-01T04:13:15;6.60;;;4.60;;
3627;SDS011;1830;49.000;12.074;2023-02-01T04:15:42;7.17;;;4.90;;
3627;SDS011;1830;49.000;12.074;2023-02-01T04:18:10;9.47;;;5.47;;
3627;SDS011;1830;49.000;12.074;2023-02-01T04:20:37;15.33;;;4.83;;
3627;SDS011;1830;49.000;12.074;2023-02-01T04:23:04;7.37;;;4.80;;
3627;SDS011;1830;49.000;12.074;2023-02-01T04:25:31;8.97;;;5.37;;
3627;SDS011;1830;49.000;12.074;2023-02-01T04:27:59;6.50;;;4.70;;
3627;SDS011;1830;49.000;12.074;2023-02-01T04:30:26;8.43;;;4.20;;
3627;SDS011;1830;49.000;12.074;2023-02-01T04:32:52;5.27;;;4.20;;
3627;SDS011;1830;49.000;12.074;2023-02-01T04:35:19;6.43;;;4.97;;
3627;SDS011;1830;49.000;12.074;2023-02-01T04:37:47;7.33;;;4.33;;
3627;SDS011;1830;49.000;12.074;2023-02-01T04:40:13;6.60;;;5.43;;
3627;SDS011;1830;49.000;12.074;2023-02-01T04:42:40;8.70;;;4.77;;
3627;SDS011;1830;49.000;12.074;2023-02-01T04:45:09;7.07;;;4.23;;
3627;SDS011;1830;49.000;12.074;2023-02-01T04:47:36;9.20;;;4.50;;
3627;SDS011;1830;49.000;12.074;2023-02-01T04:50:03;6.07;;;4.40;;
3627;SDS011;1830;49.000;12.074;2023-02-01T04:52:32;5.50;;;4.70;;
3627;SDS011;1830;49.000;12.074;2023-02-01T04:54:59;5.03;;;4.47;;
3627;SDS011;1830;49.000;12.074;2023-02-01T04:57:27;5.17;;;4.47;;
3627;SDS011;1830;49.000;12.074;2023-02-01T04:59:54;6.00;;;4.50;;
3627;SDS011;1830;49.000;12.074;2023-02-01T05:02:22;4.90;;;4.40;;
3627;SDS011;1830;49.000;12.074;2023-02-01T05:04:49;6.10;;;4.43;;
3627;SDS011;1830;49.000;12.074;2023-02-01T05:07:16;5.93;;;4.67;;
3627;SDS011;1830;49.000;12.074;2023-02-01T05:09:43;4.60;;;3.83;;
3627;SDS011;1830;49.000;12.074;2023-02-01T05:12:09;5.70;;;4.30;;
3627;SDS011;1830;49.000;12.074;2023-02-01T05:14:53;5.17;;;4.07;;
3627;SDS011;1830;49.000;12.074;2023-02-01T05:17:20;4.43;;;2.73;;
3627;SDS011;1830;49.000;12.074;2023-02-01T05:19:48;4.27;;;3.87;;
3627;SDS011;1830;49.000;12.074;2023-02-01T05:22:15;3.00;;;2.37;;
3627;SDS011;1830;49.000;12.074;2023-02-01T05:24:43;5.83;;;4.13;;
3627;SDS011;1830;49.000;12.074;2023-02-01T05:27:10;4.93;;;4.40;;
3627;SDS011;1830;49.000;12.074;2023-02-01T05:29:37;4.10;;;3.40;;
3627;SDS011;1830;49.000;12.074;2023-02-01T05:32:04;4.57;;;3.97;;
3627;SDS011;1830;49.000;12.074;2023-02-01T05:34:31;5.30;;;4.07;;
3627;SDS011;1830;49.000;12.074;2023-02-01T05:36:59;4.60;;;3.93;;
3627;SDS011;1830;49.000;12.074;2023-02-01T05:39:26;7.50;;;4.63;;
3627;SDS011;1830;49.000;12.074;2023-02-01T11:45:25;8.60;;;4.93;;
3627;SDS011;1830;49.000;12.074;2023-02-01T11:47:54;20.20;;;5.40;;
3627;SDS011;1830;49.000;12.074;2023-02-01T11:50:25;12.20;;;4.57;;
3627;SDS011;1830;49.000;12.074;2023-02-01T11:55:53;14.07;;;5.53;;
3627;SDS011;1830;49.000;12.074;2023-02-01T11:58:32;11.63;;;4.17;;
3627;SDS011;1830;49.000;12.074;2023-02-01T12:01:28;11.30;;;5.07;;
3627;SDS011;1830;49.000;12.074;2023-02-01T12:04:08;7.30;;;2.63;;
3627;SDS011;1830;49.000;12.074;2023-02-01T12:06:55;10.87;;;3.87;;
3627;SDS011;1830;49.000;12.074;2023-02-01T12:12:17;8.47;;;3.10;;
3627;SDS011;1830;49.000;12.074;2023-02-01T12:14:56;11.07;;;5.10;;
3627;SDS011;1830;49.000;12.074;2023-02-01T12:17:53;11.20;;;5.73;;
3627;SDS011;1830;49.000;12.074;2023-02-01T12:20:34;16.43;;;2.83;;
3627;SDS011;1830;49.000;12.074;2023-02-01T12:23:26;15.30;;;3.90;;
3627;SDS011;1830;49.000;12.074;2023-02-01T12:26:08;10.83;;;5.03;;
3627;SDS011;1830;49.000;12.074;2023-02-01T12:28:55;10.07;;;4.63;;
3627;SDS011;1830;49.000;12.074;2023-02-01T12:31:46;10.63;;;3.27;;
3627;SDS011;1830;49.000;12.074;2023-02-01T12:34:40;6.80;;;3.57;;
3627;SDS011;1830;49.000;12.074;2023-02-01T12:37:21;8.33;;;3.70;;
3627;SDS011;1830;49.000;12.074;2023-02-01T12:39:58;9.83;;;3.50;;
3627;SDS011;1830;49.000;12.074;2023-02-01T12:42:35;5.30;;;3.60;;
3627;SDS011;1830;49.000;12.074;2023-02-01T12:45:09;8.77;;;4.30;;
3627;SDS011;1830;49.000;12.074;2023-02-01T12:47:41;11.23;;;4.40;;
3627;SDS011;1830;49.000;12.074;2023-02-01T12:50:17;15.10;;;5.60;;
3627;SDS011;1830;49.000;12.074;2023-02-01T12:52:48;12.50;;;4.37;;
3627;SDS011;1830;49.000;12.074;2023-02-01T12:55:17;13.27;;;4.90;;
3627;SDS011;1830;49.000;12.074;2023-02-01T12:57:49;20.00;;;4.77;;
3627;SDS011;1830;49.000;12.074;2023-02-01T13:00:22;10.37;;;4.40;;
3627;SDS011;1830;49.000;12.074;2023-02-01T13:02:55;8.27;;;5.20;;
3627;SDS011;1830;49.000;12.074;2023-02-01T13:05:33;8.10;;;5.23;;
3627;SDS011;1830;49.000;12.074;2023-02-01T13:08:07;9.60;;;4.93;;
3627;SDS011;1830;49.000;12.074;2023-02-01T13:10:38;12.40;;;5.10;;
3627;SDS011;1830;49.000;12.074;2023-02-01T13:13:11;13.40;;;5.50;;
3627;SDS011;1830;49.000;12.074;2023-02-01T13:15:44;10.40;;;4.40;;
3627;SDS011;1830;49.000;12.074;2023-02-01T13:18:17;11.83;;;5.27;;
3627;SDS011;1830;49.000;12.074;2023-02-01T13:20:49;11.10;;;5.53;;
3627;SDS011;1830;49.000;12.074;2023-02-01T13:23:23;14.73;;;5.50;;
3627;SDS011;1830;49.000;12.074;2023-02-01T13:25:53;17.37;;;5.20;;
3627;SDS011;1830;49.000;12.074;2023-02-01T13:28:25;16.53;;;4.87;;
3627;SDS011;1830;49.000;12.074;2023-02-01T13:30:57;15.10;;;5.80;;
3627;SDS011;1830;49.000;12.074;2023-02-01T13:33:41;24.23;;;5.70;;
3627;SDS011;1830;49.000;12.074;2023-02-01T13:39:41;19.53;;;4.83;;
3627;SDS011;1830;49.000;12.074;2023-02-01T13:42:19;12.07;;;4.97;;
3627;SDS011;1830;49.000;12.074;2023-02-01T13:44:49;25.23;;;8.43;;
3627;SDS011;1830;49.000;12.074;2023-02-01T13:47:21;24.77;;;8.27;;
3627;SDS011;1830;49.000;12.074;2023-02-01T13:49:51;11.90;;;4.90;;
3627;SDS011;1830;49.000;12.074;2023-02-01T13:52:28;7.63;;;3.93;;
3627;SDS011;1830;49.000;12.074;2023-02-01T13:57:52;11.90;;;3.20;;
3627;SDS011;1830;49.000;12.074;2023-02-01T14:00:40;11.07;;;3.90;;
3627;SDS011;1830;49.000;12.074;2023-02-01T14:03:16;14.07;;;5.03;;
3627;SDS011;1830;49.000;12.074;2023-02-01T14:05:58;9.07;;;4.13;;
3627;SDS011;1830;49.000;12.074;2023-02-01T14:08:42;15.10;;;4.03;;
3627;SDS011;1830;49.000;12.074;2023-02-01T14:11:33;11.93;;;4.30;;
3627;SDS011;1830;49.000;12.074;2023-02-01T14:23:11;17.33;;;4.27;;
3627;SDS011;1830;49.000;12.074;2023-02-01T14:25:42;9.97;;;3.70;;
3627;SDS011;1830;49.000;12.074;2023-02-01T14:28:11;7.40;;;4.03;;
3627;SDS011;1830;49.000;12.074;2023-02-01T14:30:45;11.97;;;4.97;;
3627;SDS011;1830;49.000;12.074;2023-02-01T14:33:17;13.67;;;3.70;;
3627;SDS011;1830;49.000;12.074;2023-02-01T14:35:54;23.20;;;5.67;;
3627;SDS011;1830;49.000;12.074;2023-02-01T14:38:27;14.13;;;4.80;;
3627;SDS011;1830;49.000;12.074;2023-02-01T14:41:10;14.60;;;5.87;;
3627;SDS011;1830;49.000;12.074;2023-02-01T14:43:50;14.07;;;4.30;;
3627;SDS011;1830;49.000;12.074;2023-02-01T14:46:17;24.80;;;8.83;;
3627;SDS011;1830;49.000;12.074;2023-02-01T14:48:45;11.50;;;4.23;;
3627;SDS011;1830;49.000;12.074;2023-02-01T14:51:14;17.63;;;4.87;;
3627;SDS011;1830;49.000;12.074;2023-02-01T14:53:42;11.50;;;3.80;;
3627;SDS011;1830;49.000;12.074;2023-02-01T14:56:13;20.87;;;5.63;;
3627;SDS011;1830;49.000;12.074;2023-02-01T14:58:47;19.50;;;5.20;;
3627;SDS011;1830;49.000;12.074;2023-02-01T15:01:21;6.60;;;3.57;;
3627;SDS011;1830;49.000;12.074;2023-02-01T15:03:53;17.23;;;4.13;;
3627;SDS011;1830;49.000;12.074;2023-02-01T15:06:25;10.83;;;4.00;;
3627;SDS011;1830;49.000;12.074;2023-02-01T15:08:56;18.93;;;3.53;;
3627;SDS011;1830;49.000;12.074;2023-02-01T15:11:27;15.43;;;3.83;;
3627;SDS011;1830;49.000;12.074;2023-02-01T15:13:54;12.07;;;3.03;;
3627;SDS011;1830;49.000;12.074;2023-02-01T15:16:22;19.30;;;9.03;;
3627;SDS011;1830;49.000;12.074;2023-02-01T15:18:50;12.60;;;4.27;;
3627;SDS011;1830;49.000;12.074;2023-02-01T15:21:32;13.80;;;3.63;;
3627;SDS011;1830;49.000;12.074;2023-02-01T15:24:10;10.83;;;3.70;;
3627;SDS011;1830;49.000;12.074;2023-02-01T15:26:39;12.60;;;4.60;;
3627;SDS011;1830;49.000;12.074;2023-02-01T15:29:09;12.40;;;3.77;;
3627;SDS011;1830;49.000;12.074;2023-02-01T15:31:40;16.80;;;4.37;;
3627;SDS011;1830;49.000;12.074;2023-02-01T15:34:09;13.23;;;4.80;;
3627;SDS011;1830;49.000;12.074;2023-02-01T15:36:36;11.23;;;4.30;;
3627;SDS011;1830;49.000;12.074;2023-02-01T15:39:14;12.70;;;4.60;;
3627;SDS011;1830;49.000;12.074;2023-02-01T15:41:47;18.30;;;3.80;;
3627;SDS011;1830;49.000;12.074;2023-02-01T15:44:21;12.00;;;4.30;;
3627;SDS011;1830;49.000;12.074;2023-02-01T15:46:59;8.83;;;3.10;;
3627;SDS011;1830;49.000;12.074;2023-02-01T15:49:36;16.77;;;4.13;;
3627;SDS011;1830;49.000;12.074;2023-02-01T15:52:19;15.73;;;4.63;;
3627;SDS011;1830;49.000;12.074;2023-02-01T15:54:50;8.63;;;2.93;;
3627;SDS011;1830;49.000;12.074;2023-02-01T15:57:20;12.93;;;4.47;;
3627;SDS011;1830;49.000;12.074;2023-02-01T15:59:55;5.37;;;2.17;;
3627;SDS011;1830;49.000;12.074;2023-02-01T16:02:26;14.10;;;3.30;;
3627;SDS011;1830;49.000;12.074;2023-02-01T16:04:56;15.00;;;4.23;;
3627;SDS011;1830;49.000;12.074;2023-02-01T16:07:25;16.30;;;4.40;;
3627;SDS011;1830;49.000;12.074;2023-02-01T16:09:54;18.90;;;3.90;;
3627;SDS011;1830;49.000;12.074;2023-02-01T16:12:27;12.13;;;3.37;;
3627;SDS011;1830;49.000;12.074;2023-02-01T16:14:55;17.80;;;4.63;;
3627;SDS011;1830;49.000;12.074;2023-02-01T16:17:22;14.60;;;3.57;;
3627;SDS011;1830;49.000;12.074;2023-02-01T16:19:49;8.60;;;3.37;;
3627;SDS011;1830;49.000;12.074;2023-02-01T16:22:16;7.90;;;2.90;;
3627;SDS011;1830;49.000;12.074;2023-02-01T16:24:43;12.70;;;3.40;;
3627;SDS011;1830;49.000;12.074;2023-02-01T16:27:10;9.00;;;4.20;;
3627;SDS011;1830;49.000;12.074;2023-02-01T16:29:38;17.23;;;4.23;;
3627;SDS011;1830;49.000;12.074;2023-02-01T16:32:05;14.37;;;4.07;;
3627;SDS011;1830;49.000;12.074;2023-02-01T16:34:32;10.67;;;4.83;;
3627;SDS011;1830;49.000;12.074;2023-02-01T16:37:00;7.30;;;3.33;;
3627;SDS011;1830;49.000;12.074;2023-02-01T16:39:28;7.53;;;2.43;;
3627;SDS011;1830;49.000;12.074;2023-02-01T16:41:58;7.70;;;3.30;;
3627;SDS011;1830;49.000;12.074;2023-02-01T16:44:25;12.30;;;3.43;;
3627;SDS011;1830;49.000;12.074;2023-02-01T16:46:53;10.93;;;3.50;;
3627;SDS011;1830;49.000;12.074;2023-02-01T16:49:21;17.60;;;3.30;;
3627;SDS011;1830;49.000;12.074;2023-02-01T16:51:50;11.03;;;3.67;;
3627;SDS011;1830;49.000;12.074;2023-02-01T16:54:19;8.37;;;3.83;;
3627;SDS011;1830;49.000;12.074;2023-02-01T16:56:47;17.83;;;4.43;;
3627;SDS011;1830;49.000;12.074;2023-02-01T16:59:14;14.53;;;4.27;;
3627;SDS011;1830;49.000;12.074;2023-02-01T17:01:41;13.57;;;3.70;;
3627;SDS011;1830;49.000;12.074;2023-02-01T17:04:09;9.83;;;3.60;;
3627;SDS011;1830;49.000;12.074;2023-02-01T17:06:36;6.00;;;2.60;;
3627;SDS011;1830;49.000;12.074;2023-02-01T17:09:04;13.73;;;3.33;;
3627;SDS011;1830;49.000;12.074;2023-02-01T17:11:31;8.00;;;3.63;;
3627;SDS011;1830;49.000;12.074;2023-02-01T17:14:00;7.90;;;3.10;;
3627;SDS011;1830;49.000;12.074;2023-02-01T17:16:37;12.10;;;4.30;;
3627;SDS011;1830;49.000;12.074;2023-02-01T17:19:06;10.90;;;3.97;;
3627;SDS011;1830;49.000;12.074;2023-02-01T17:21:38;6.63;;;3.47;;
3627;SDS011;1830;49.000;12.074;2023-02-01T17:24:09;13.07;;;3.60;;
3627;SDS011;1830;49.000;12.074;2023-02-01T17:26:39;12.50;;;4.00;;
3627;SDS011;1830;49.000;12.074;2023-02-01T17:29:06;17.20;;;4.40;;
3627;SDS011;1830;49.000;12.074;2023-02-01T17:31:33;18.53;;;3.90;;
3627;SDS011;1830;49.000;12.074;2023-02-01T17:34:03;11.20;;;3.70;;
3627;SDS011;1830;49.000;12.074;2023-02-01T17:36:31;15.27;;;4.10;;
3627;SDS011;1830;49.000;12.074;2023-02-01T17:38:58;7.20;;;2.90;;
3627;SDS011;1830;49.000;12.074;2023-02-01T17:41:25;14.30;;;3.90;;
3627;SDS011;1830;49.000;12.074;2023-02-01T17:43:52;18.20;;;4.17;;
3627;SDS011;1830;49.000;12.074;2023-02-01T17:46:19;19.20;;;4.23;;
3627;SDS011;1830;49.000;12.074;2023-02-01T17:48:51;17.30;;;5.10;;
3627;SDS011;1830;49.000;12.074;2023-02-01T17:51:19;12.93;;;3.97;;
3627;SDS011;1830;49.000;12.074;2023-02-01T17:53:49;16.70;;;4.13;;
3627;SDS011;1830;49.000;12.074;2023-02-01T17:56:17;15.57;;;4.40;;
3627;SDS011;1830;49.000;12.074;2023-02-01T17:58:45;15.60;;;4.10;;
3627;SDS011;1830;49.000;12.074;2023-02-01T18:01:13;26.43;;;4.10;;
3627;SDS011;1830;49.000;12.074;2023-02-01T18:03:46;11.20;;;4.23;;
3627;SDS011;1830;49.000;12.074;2023-02-01T18:06:13;7.80;;;2.63;;
3627;SDS011;1830;49.000;12.074;2023-02-01T18:08:41;18.43;;;4.17;;
3627;SDS011;1830;49.000;12.074;2023-02-01T18:11:12;10.40;;;3.80;;
3627;SDS011;1830;49.000;12.074;2023-02-01T18:13:40;6.50;;;2.07;;
3627;SDS011;1830;49.000;12.074;2023-02-01T18:16:12;9.83;;;3.30;;
3627;SDS011;1830;49.000;12.074;2023-02-01T18:18:43;9.43;;;3.33;;
3627;SDS011;1830;49.000;12.074;2023-02-01T18:21:10;10.37;;;3.53;;
3627;SDS011;1830;49.000;12.074;2023-02-01T18:23:37;13.80;;;3.90;;
3627;SDS011;1830;49.000;12.074;2023-02-01T18:26:04;10.67;;;2.60;;
3627;SDS011;1830;49.000;12.074;2023-02-01T18:28:32;23.40;;;4.03;;
3627;SDS011;1830;49.000;12.074;2023-02-01T18:30:59;12.50;;;3.83;;
3627;SDS011;1830;49.000;12.074;2023-02-01T18:33:27;10.77;;;3.43;;
3627;SDS011;1830;49.000;12.074;2023-02-01T18:35:53;17.63;;;4.00;;
3627;SDS011;1830;49.000;12.074;2023-02-01T18:38:20;9.33;;;3.70;;
3627;SDS011;1830;49.000;12.074;2023-02-01T18:40:47;19.13;;;3.47;;
3627;SDS011;1830;49.000;12.074;2023-02-01T18:43:16;17.30;;;3.57;;
3627;SDS011;1830;49.000;12.074;2023-02-01T18:45:45;13.00;;;5.10;;
3627;SDS011;1830;49.000;12.074;2023-02-01T18:48:13;13.37;;;4.87;;
3627;SDS011;1830;49.000;12.074;2023-02-01T18:50:43;16.53;;;4.63;;
3627;SDS011;1830;49.000;12.074;2023-02-01T18:53:11;17.50;;;4.57;;
3627;SDS011;1830;49.000;12.074;2023-02-01T18:55:39;12.20;;;3.67;;
3627;SDS011;1830;49.000;12.074;2023-02-01T18:58:06;13.37;;;4.00;;
3627;SDS011;1830;49.000;12.074;2023-02-01T19:00:33;12.50;;;4.00;;
3627;SDS011;1830;49.000;12.074;2023-02-01T19:03:02;14.87;;;3.87;;
3627;SDS011;1830;49.000;12.074;2023-02-01T19:05:29;19.73;;;4.60;;
3627;SDS011;1830;49.000;12.074;2023-02-01T19:07:56;15.80;;;4.50;;
3627;SDS011;1830;49.000;12.074;2023-02-01T19:10:23;12.83;;;3.90;;
3627;SDS011;1830;49.000;12.074;2023-02-01T19:12:51;12.20;;;4.40;;
3627;SDS011;1830;49.000;12.074;2023-02-01T19:15:21;12.43;;;3.13;;
3627;SDS011;1830;49.000;12.074;2023-02-01T19:17:50;18.67;;;4.97;;
3627;SDS011;1830;49.000;12.074;2023-02-01T19:20:22;27.83;;;3.70;;
3627;SDS011;1830;49.000;12.074;2023-02-01T19:22:50;17.30;;;3.60;;
3627;SDS011;1830;49.000;12.074;2023-02-01T19:25:18;7.20;;;3.00;;
3627;SDS011;1830;49.000;12.074;2023-02-01T19:27:46;17.17;;;3.77;;
3627;SDS011;1830;49.000;12.074;2023-02-01T19:30:13;22.63;;;4.63;;
3627;SDS011;1830;49.000;12.074;2023-02-01T19:32:40;12.87;;;3.70;;
3627;SDS011;1830;49.000;12.074;2023-02-01T19:35:08;17.03;;;3.90;;
3627;SDS011;1830;49.000;12.074;2023-02-01T19:37:38;7.17;;;3.07;;
3627;SDS011;1830;49.000;12.074;2023-02-01T19:40:07;13.70;;;4.03;;
3627;SDS011;1830;49.000;12.074;2023-02-01T19:42:34;11.07;;;3.20;;
3627;SDS011;1830;49.000;12.074;2023-02-01T19:45:01;11.83;;;3.30;;
3627;SDS011;1830;49.000;12.074;2023-02-01T19:47:28;17.17;;;4.23;;
3627;SDS011;1830;49.000;12.074;2023-02-01T19:49:55;13.57;;;3.70;;
3627;SDS011;1830;49.000;12.074;2023-02-01T19:52:22;17.30;;;5.00;;
3627;SDS011;1830;49.000;12.074;2023-02-01T19:54:50;14.43;;;3.57;;
3627;SDS011;1830;49.000;12.074;2023-02-01T19:57:17;7.63;;;3.20;;
3627;SDS011;1830;49.000;12.074;2023-02-01T19:59:44;13.73;;;4.47;;
3627;SDS011;1830;49.000;12.074;2023-02-01T20:02:12;10.53;;;2.77;;
3627;SDS011;1830;49.000;12.074;2023-02-01T20:04:40;5.27;;;2.90;;
3627;SDS011;1830;49.000;12.074;2023-02-01T20:07:06;8.57;;;2.93;;
3627;SDS011;1830;49.000;12.074;2023-02-01T20:09:35;15.57;;;4.40;;
3627;SDS011;1830;49.000;12.074;2023-02-01T20:12:05;13.10;;;3.93;;
3627;SDS011;1830;49.000;12.074;2023-02-01T20:14:32;7.90;;;3.43;;
3627;SDS011;1830;49.000;12.074;2023-02-01T20:16:58;17.50;;;5.10;;
3627;SDS011;1830;49.000;12.074;2023-02-01T20:19:25;11.10;;;3.70;;
3627;SDS011;1830;49.000;12.074;2023-02-01T20:21:52;20.03;;;5.07;;
3627;SDS011;1830;49.000;12.074;2023-02-01T20:24:19;10.53;;;3.80;;
3627;SDS011;1830;49.000;12.074;2023-02-01T20:26:46;10.70;;;3.53;;
3627;SDS011;1830;49.000;12.074;2023-02-01T20:29:14;20.33;;;4.60;;
3627;SDS011;1830;49.000;12.074;2023-02-01T20:31:41;13.00;;;3.70;;
3627;SDS011;1830;49.000;12.074;2023-02-01T20:34:09;14.17;;;3.53;;
3627;SDS011;1830;49.000;12.074;2023-02-01T20:36:37;17.60;;;4.10;;
3627;SDS011;1830;49.000;12.074;2023-02-01T20:39:04;18.70;;;4.87;;
3627;SDS011;1830;49.000;12.074;2023-02-01T20:41:31;13.17;;;4.20;;
3627;SDS011;1830;49.000;12.074;2023-02-01T20:43:58;14.90;;;3.60;;
3627;SDS011;1830;49.000;12.074;2023-02-01T20:46:27;11.83;;;3.50;;
3627;SDS011;1830;49.000;12.074;2023-02-01T20:48:53;11.00;;;3.20;;
3627;SDS011;1830;49.000;12.074;2023-02-01T20:51:20;11.50;;;3.80;;
3627;SDS011;1830;49.000;12.074;2023-02-01T20:53:47;18.03;;;3.57;;
3627;SDS011;1830;49.000;12.074;2023-02-01T20:56:16;5.80;;;3.27;;
3627;SDS011;1830;49.000;12.074;2023-02-01T20:58:44;15.90;;;3.90;;
3627;SDS011;1830;49.000;12.074;2023-02-01T21:01:11;15.50;;;4.10;;
3627;SDS011;1830;49.000;12.074;2023-02-01T21:03:40;25.07;;;4.10;;
3627;SDS011;1830;49.000;12.074;2023-02-01T21:06:07;18.37;;;3.80;;
3627;SDS011;1830;49.000;12.074;2023-02-01T21:08:35;11.73;;;3.57;;
3627;SDS011;1830;49.000;12.074;2023-02-01T21:11:03;12.07;;;2.90;;
3627;SDS011;1830;49.000;12.074;2023-02-01T21:13:33;11.90;;;4.33;;
3627;SDS011;1830;49.000;12.074;2023-02-01T21:16:06;8.60;;;3.77;;
3627;SDS011;1830;49.000;12.074;2023-02-01T21:18:34;8.53;;;2.87;;
3627;SDS011;1830;49.000;12.074;2023-02-01T21:21:04;17.53;;;4.00;;
3627;SDS011;1830;49.000;12.074;2023-02-01T21:23:31;11.13;;;3.10;;
3627;SDS011;1830;49.000;12.074;2023-02-01T21:26:08;10.30;;;4.13;;
3627;SDS011;1830;49.000;12.074;2023-02-01T21:28:36;11.40;;;3.30;;
3627;SDS011;1830;49.000;12.074;2023-02-01T21:31:03;10.50;;;2.97;;
3627;SDS011;1830;49.000;12.074;2023-02-01T21:33:30;14.73;;;3.90;;
3627;SDS011;1830;49.000;12.074;2023-02-01T21:35:59;12.63;;;4.33;;
3627;SDS011;1830;49.000;12.074;2023-02-01T21:38:28;11.30;;;3.23;;
3627;SDS011;1830;49.000;12.074;2023-02-01T21:40:55;16.27;;;3.90;;
3627;SDS011;1830;49.000;12.074;2023-02-01T21:43:39;11.93;;;3.83;;
3627;SDS011;1830;49.000;12.074;2023-02-01T21:46:06;8.70;;;3.60;;
3627;SDS011;1830;49.000;12.074;2023-02-01T21:48:33;12.70;;;3.57;;